Vendome Street — A8YI6 — position and weather

sailwx.info

Track history (hours):
 
Tides and Currents Weather Stations Pressure Air Temp Water Temp Dewpoint Dewpoint Depression Visibility Wind Speed Wind Dir Waves Ship Positions

Vendome Street

Last reported at 2014-Dec-11 20:20 UTC. Time now 2014-Dec-19 04:39 UTC.
Position N 35°58' W 005°34'.

Length 177 m; draft 8.2 m.

Type: Tanker. MMSI: 636015064.

Date/timePositionNaut miles runAvg speedWind from/ knotsBaromVisibWave heightAir tempDewpointWater temp
2014-Dec-11 20:20N 35°58' W 005°34'912.0
2014-Dec-11 19:33N 36°01' W 005°23'6 5.9
2014-Dec-11 18:33N 36°07' W 005°22'0 0.0
2014-Dec-11 17:27N 36°07' W 005°22'0 0.1
2014-Dec-11 15:33N 36°07' W 005°22'0 0.1
2014-Dec-11 14:30N 36°07' W 005°22'0 0.1
2014-Dec-11 13:33N 36°07' W 005°22'0 0.1
2014-Dec-11 12:27N 36°07' W 005°22'0 0.1
2014-Dec-11 11:33N 36°07' W 005°22'0 0.1
2014-Dec-11 09:27N 36°07' W 005°21'0 0.0
2014-Dec-11 08:09N 36°07' W 005°21'0 0.0
2014-Dec-11 07:33N 36°07' W 005°21'0 0.0
2014-Dec-11 05:33N 36°07' W 005°21'0 0.0
2014-Dec-11 04:27N 36°07' W 005°22'0 0.0
2014-Dec-11 03:33N 36°07' W 005°22'0 0.0
2014-Dec-11 02:27N 36°07' W 005°22'0 0.0
2014-Dec-11 01:33N 36°07' W 005°22'0 0.0
2014-Dec-11 00:33N 36°07' W 005°22'6 4.8
2014-Dec-10 23:16N 36°01' W 005°22'7 9.6
2014-Dec-10 22:33N 35°57' W 005°29'2310.6
2014-Dec-10 20:22N 35°53' W 005°57'  
2014-Dec-05 07:20N 35°60' W 005°29'6 7.8
2014-Dec-05 06:34N 36°04' W 005°24'1 1.0
2014-Dec-05 05:33N 36°05' W 005°24'0 0.1
2014-Dec-05 04:33N 36°05' W 005°24'0 0.0
2014-Dec-05 03:27N 36°05' W 005°24'0 0.1
2014-Dec-05 02:33N 36°05' W 005°24'0 0.1
2014-Dec-05 01:33N 36°05' W 005°24'0 0.1
2014-Dec-05 00:33N 36°05' W 005°24'0 0.0
2014-Dec-04 23:33N 36°05' W 005°24'0 0.2
2014-Dec-04 22:33N 36°05' W 005°24'0 0.0
2014-Dec-04 21:33N 36°05' W 005°24'0 0.2
2014-Dec-04 20:23N 36°05' W 005°24'4 4.9
2014-Dec-04 19:33N 36°04' W 005°19'7 6.8
2014-Dec-04 18:31N 36°08' W 005°13'10 9.9
2014-Dec-04 17:33N 36°03' W 005°23'1 1.0
2014-Dec-04 16:27N 36°02' W 005°23'1 0.7
2014-Dec-04 15:33N 36°03' W 005°23'1 0.6
2014-Dec-04 14:33N 36°03' W 005°24'3 2.9
2014-Dec-04 13:33N 36°02' W 005°20'1010.1
2014-Dec-04 12:33N 35°56' W 005°31'1212.2
2014-Dec-04 11:32N 35°54' W 005°46'  
2014-Dec-01 21:32N 37°38' W 017°09'  
Track history (hours):
 
Tides and Currents Weather Stations Pressure Air Temp Water Temp Dewpoint Dewpoint Depression Visibility Wind Speed Wind Dir Waves Ship Positions

Vendome Street

Last reported at 2014-Dec-11 20:20 UTC. Time now 2014-Dec-19 04:39 UTC.
Position N 35°58' W 005°34'.

Length 177 m; draft 8.2 m.

Type: Tanker. MMSI: 636015064.

Date/timePositionNaut miles runAvg speedWind from/ knotsBaromVisibWave heightAir tempDewpointWater temp
2014-Dec-11 20:20N 35°58' W 005°34'912.0
2014-Dec-11 19:33N 36°01' W 005°23'6 5.9
2014-Dec-11 18:33N 36°07' W 005°22'0 0.0
2014-Dec-11 17:27N 36°07' W 005°22'0 0.1
2014-Dec-11 15:33N 36°07' W 005°22'0 0.1
2014-Dec-11 14:30N 36°07' W 005°22'0 0.1
2014-Dec-11 13:33N 36°07' W 005°22'0 0.1
2014-Dec-11 12:27N 36°07' W 005°22'0 0.1
2014-Dec-11 11:33N 36°07' W 005°22'0 0.1
2014-Dec-11 09:27N 36°07' W 005°21'0 0.0
2014-Dec-11 08:09N 36°07' W 005°21'0 0.0
2014-Dec-11 07:33N 36°07' W 005°21'0 0.0
2014-Dec-11 05:33N 36°07' W 005°21'0 0.0
2014-Dec-11 04:27N 36°07' W 005°22'0 0.0
2014-Dec-11 03:33N 36°07' W 005°22'0 0.0
2014-Dec-11 02:27N 36°07' W 005°22'0 0.0
2014-Dec-11 01:33N 36°07' W 005°22'0 0.0
2014-Dec-11 00:33N 36°07' W 005°22'6 4.8
2014-Dec-10 23:16N 36°01' W 005°22'7 9.6
2014-Dec-10 22:33N 35°57' W 005°29'2310.6
2014-Dec-10 20:22N 35°53' W 005°57'  
2014-Dec-05 07:20N 35°60' W 005°29'6 7.8
2014-Dec-05 06:34N 36°04' W 005°24'1 1.0
2014-Dec-05 05:33N 36°05' W 005°24'0 0.1
2014-Dec-05 04:33N 36°05' W 005°24'0 0.0
2014-Dec-05 03:27N 36°05' W 005°24'0 0.1
2014-Dec-05 02:33N 36°05' W 005°24'0 0.1
2014-Dec-05 01:33N 36°05' W 005°24'0 0.1
2014-Dec-05 00:33N 36°05' W 005°24'0 0.0
2014-Dec-04 23:33N 36°05' W 005°24'0 0.2
2014-Dec-04 22:33N 36°05' W 005°24'0 0.0
2014-Dec-04 21:33N 36°05' W 005°24'0 0.2
2014-Dec-04 20:23N 36°05' W 005°24'4 4.9
2014-Dec-04 19:33N 36°04' W 005°19'7 6.8
2014-Dec-04 18:31N 36°08' W 005°13'10 9.9
2014-Dec-04 17:33N 36°03' W 005°23'1 1.0
2014-Dec-04 16:27N 36°02' W 005°23'1 0.7
2014-Dec-04 15:33N 36°03' W 005°23'1 0.6
2014-Dec-04 14:33N 36°03' W 005°24'3 2.9
2014-Dec-04 13:33N 36°02' W 005°20'1010.1
2014-Dec-04 12:33N 35°56' W 005°31'1212.2
2014-Dec-04 11:32N 35°54' W 005°46'  
2014-Dec-01 21:32N 37°38' W 017°09'  

Dump ship's entire track history